createdAt,value
2016-02-06T00:00:12.639Z,0
2016-02-06T00:01:12.611Z,0
2016-02-06T00:02:12.599Z,0
2016-02-06T00:03:12.586Z,0
2016-02-06T00:04:12.527Z,0
2016-02-06T00:05:12.529Z,0
2016-02-06T00:06:12.515Z,0
2016-02-06T00:07:12.550Z,0
2016-02-06T00:08:12.446Z,0
2016-02-06T00:09:12.449Z,0
2016-02-06T00:10:12.420Z,0
2016-02-06T00:11:12.376Z,0
2016-02-06T00:12:12.362Z,0
2016-02-06T00:13:12.366Z,0
2016-02-06T00:14:12.354Z,0
2016-02-06T00:15:12.294Z,0
2016-02-06T00:16:12.266Z,0
2016-02-06T00:17:12.300Z,0
2016-02-06T00:18:12.255Z,0
2016-02-06T00:19:12.243Z,0
2016-02-06T00:20:12.340Z,0
2016-02-06T00:21:12.187Z,0
2016-02-06T00:22:12.158Z,0
2016-02-06T00:23:12.129Z,0
2016-02-06T00:24:12.101Z,0
2016-02-06T00:25:12.104Z,0
2016-02-06T00:26:12.059Z,0
2016-02-06T00:27:12.063Z,0
2016-02-06T00:28:12.018Z,0
2016-02-06T00:29:12.006Z,0
2016-02-06T00:30:12.008Z,0
2016-02-06T00:31:12.231Z,0
2016-02-06T00:32:11.920Z,0
2016-02-06T00:33:11.924Z,0
2016-02-06T00:34:11.915Z,0
2016-02-06T00:35:11.856Z,0
2016-02-06T00:36:11.843Z,0
2016-02-06T00:37:11.862Z,0
2016-02-06T00:38:11.818Z,0
2016-02-06T00:39:11.774Z,0
2016-02-06T00:40:11.760Z,0
2016-02-06T00:41:11.748Z,0
2016-02-06T00:42:11.703Z,0
2016-02-06T00:43:11.691Z,0
2016-02-06T00:44:11.662Z,0
2016-02-06T00:45:11.634Z,0
2016-02-06T00:46:11.624Z,0
2016-02-06T00:47:11.643Z,0
2016-02-06T00:48:11.583Z,0
2016-02-06T00:49:11.554Z,0
2016-02-06T00:50:11.385Z,0
2016-02-06T00:51:11.560Z,0
2016-02-06T00:52:11.484Z,0
2016-02-06T00:53:11.471Z,0
2016-02-06T00:54:11.460Z,0
2016-02-06T00:55:11.462Z,0
2016-02-06T00:56:11.402Z,0
2016-02-06T00:57:11.389Z,0
2016-02-06T00:58:11.376Z,0
2016-02-06T00:59:11.363Z,0
2016-02-06T01:00:11.319Z,0
2016-02-06T01:01:11.321Z,0
2016-02-06T01:02:11.293Z,0
2016-02-06T01:03:11.295Z,0
2016-02-06T01:04:11.251Z,0
2016-02-06T01:05:11.197Z,0
2016-02-06T01:06:11.200Z,0
2016-02-06T01:07:11.157Z,0
2016-02-06T01:08:11.191Z,0
2016-02-06T01:09:11.147Z,0
2016-02-06T01:10:11.134Z,0
2016-02-06T01:11:11.122Z,0
2016-02-06T01:12:11.077Z,0
2016-02-06T01:13:11.048Z,0
2016-02-06T01:14:11.037Z,0
2016-02-06T01:15:10.977Z,0
2016-02-06T01:16:10.964Z,0
2016-02-06T01:17:10.940Z,0
2016-02-06T01:18:11.193Z,0
2016-02-06T01:19:10.899Z,0
2016-02-06T01:20:10.885Z,0
2016-02-06T01:21:11.263Z,0
2016-02-06T01:22:10.860Z,0
2016-02-06T01:23:10.956Z,0
2016-02-06T01:24:10.802Z,0
2016-02-06T01:25:10.790Z,0
2016-02-06T01:26:10.745Z,0
2016-02-06T01:27:10.734Z,0
2016-02-06T01:28:10.706Z,0
2016-02-06T01:29:10.692Z,0
2016-02-06T01:30:10.695Z,0
2016-02-06T01:31:10.650Z,0
2016-02-06T01:32:10.622Z,0
2016-02-06T01:33:10.616Z,0
2016-02-06T01:34:10.636Z,0
2016-02-06T01:35:10.561Z,0
2016-02-06T01:36:10.548Z,0
2016-02-06T01:37:10.519Z,0
2016-02-06T01:38:10.553Z,0
2016-02-06T01:39:10.462Z,0
2016-02-06T01:40:10.450Z,0
2016-02-06T01:41:10.452Z,0
2016-02-06T01:42:10.408Z,0
2016-02-06T01:43:10.410Z,0
2016-02-06T01:44:10.383Z,0
2016-02-06T01:45:10.338Z,0
2016-02-06T01:46:10.341Z,0
2016-02-06T01:47:10.296Z,0
2016-02-06T01:48:10.283Z,0
2016-02-06T01:49:10.255Z,0
2016-02-06T01:50:10.227Z,0
2016-02-06T01:51:10.213Z,0
2016-02-06T01:52:10.185Z,0
2016-02-06T01:53:10.156Z,0
2016-02-06T01:54:10.143Z,0
2016-02-06T01:55:10.162Z,0
2016-02-06T01:56:10.102Z,0
2016-02-06T01:57:10.089Z,0
2016-02-06T01:58:10.060Z,0
2016-02-06T01:59:10.031Z,0
2016-02-06T02:00:10.005Z,0
2016-02-06T02:01:10.007Z,0
2016-02-06T02:02:10.010Z,0
2016-02-06T02:03:09.949Z,0
2016-02-06T02:04:09.922Z,0
2016-02-06T02:05:09.925Z,0
2016-02-06T02:06:10.319Z,0
2016-02-06T02:07:09.852Z,0
2016-02-06T02:08:09.839Z,0
2016-02-06T02:09:09.826Z,0
2016-02-06T02:10:09.783Z,0
2016-02-06T02:11:09.769Z,0
2016-02-06T02:12:09.788Z,0
2016-02-06T02:13:09.730Z,0
2016-02-06T02:14:09.702Z,0
2016-02-06T02:15:09.813Z,0
2016-02-06T02:16:09.660Z,0
2016-02-06T02:17:09.632Z,0
2016-02-06T02:18:09.634Z,0
2016-02-06T02:19:09.606Z,0
2016-02-06T02:20:09.562Z,0
2016-02-06T02:21:09.549Z,0
2016-02-06T02:22:09.551Z,0
2016-02-06T02:23:09.507Z,0
2016-02-06T02:24:09.478Z,0
2016-02-06T02:25:09.465Z,0
2016-02-06T02:26:09.676Z,0
2016-02-06T02:27:09.413Z,0
2016-02-06T02:28:09.384Z,0
2016-02-06T02:29:09.402Z,0
2016-02-06T02:30:09.343Z,0
2016-02-06T02:31:09.319Z,0
2016-02-06T02:32:09.323Z,0
2016-02-06T02:33:09.311Z,0
2016-02-06T02:34:09.264Z,0
2016-02-06T02:35:09.220Z,0
2016-02-06T02:36:09.222Z,0
2016-02-06T02:37:09.209Z,0
2016-02-06T02:38:09.164Z,0
2016-02-06T02:39:09.153Z,0
2016-02-06T02:40:09.140Z,0
2016-02-06T02:41:09.097Z,0
2016-02-06T02:42:09.084Z,0
2016-02-06T02:43:09.071Z,0
2016-02-06T02:44:09.026Z,0
2016-02-06T02:45:09.013Z,0
2016-02-06T02:46:09.016Z,0
2016-02-06T02:47:09.020Z,0
2016-02-06T02:48:08.960Z,0
2016-02-06T02:49:08.932Z,0
2016-02-06T02:50:08.902Z,0
2016-02-06T02:51:08.905Z,0
2016-02-06T02:52:08.862Z,0
2016-02-06T02:53:08.849Z,0
2016-02-06T02:54:08.820Z,0
2016-02-06T02:55:08.807Z,0
2016-02-06T02:56:08.778Z,0
2016-02-06T02:57:08.751Z,0
2016-02-06T02:58:08.737Z,0
2016-02-06T02:59:08.710Z,0
2016-02-06T03:00:08.696Z,0
2016-02-06T03:01:08.652Z,0
2016-02-06T03:02:08.640Z,0
2016-02-06T03:03:08.658Z,0
2016-02-06T03:04:08.618Z,0
2016-02-06T03:05:08.574Z,0
2016-02-06T03:06:08.561Z,0
2016-02-06T03:07:08.675Z,0
2016-02-06T03:08:08.537Z,0
2016-02-06T03:09:08.492Z,0
2016-02-06T03:10:08.464Z,0
2016-02-06T03:11:08.452Z,0
2016-02-06T03:12:08.408Z,0
2016-02-06T03:13:08.395Z,0
2016-02-06T03:14:08.367Z,0
2016-02-06T03:15:08.355Z,0
2016-02-06T03:16:08.326Z,0
2016-02-06T03:17:08.330Z,0
2016-02-06T03:18:08.519Z,0
2016-02-06T03:19:08.272Z,0
2016-02-06T03:20:08.245Z,0
2016-02-06T03:21:08.217Z,0
2016-02-06T03:22:08.203Z,0
2016-02-06T03:23:08.239Z,0
2016-02-06T03:24:08.194Z,0
2016-02-06T03:25:08.165Z,0
2016-02-06T03:26:08.121Z,0
2016-02-06T03:27:08.077Z,0
2016-02-06T03:28:08.081Z,0
2016-02-06T03:29:08.052Z,0
2016-02-06T03:30:08.023Z,0
2016-02-06T03:31:08.026Z,0
2016-02-06T03:32:07.967Z,0
2016-02-06T03:33:07.956Z,0
2016-02-06T03:34:07.927Z,0
2016-02-06T03:35:07.915Z,0
2016-02-06T03:36:07.886Z,0
2016-02-06T03:37:07.874Z,0
2016-02-06T03:38:07.876Z,0
2016-02-06T03:39:07.800Z,0
2016-02-06T03:40:07.806Z,0
2016-02-06T03:41:07.762Z,0
2016-02-06T03:42:07.749Z,0
2016-02-06T03:43:07.799Z,0
2016-02-06T03:44:07.723Z,0
2016-02-06T03:45:07.679Z,0
2016-02-06T03:46:07.667Z,0
2016-02-06T03:47:07.653Z,0
2016-02-06T03:48:07.625Z,0
2016-02-06T03:49:07.612Z,0
2016-02-06T03:50:07.567Z,0
2016-02-06T03:51:07.555Z,0
2016-02-06T03:52:07.526Z,0
2016-02-06T03:53:07.516Z,0
2016-02-06T03:54:07.363Z,0
2016-02-06T03:55:07.459Z,0
2016-02-06T03:56:07.430Z,0
2016-02-06T03:57:07.417Z,0
2016-02-06T03:58:07.405Z,0
2016-02-06T03:59:07.376Z,0
2016-02-06T04:00:07.363Z,0
2016-02-06T04:01:07.353Z,0
2016-02-06T04:02:07.311Z,0
2016-02-06T04:03:07.283Z,0
2016-02-06T04:04:07.270Z,0
2016-02-06T04:05:07.397Z,0
2016-02-06T04:06:07.075Z,0
2016-02-06T04:07:07.203Z,0
2016-02-06T04:08:07.191Z,0
2016-02-06T04:09:07.177Z,0
2016-02-06T04:10:07.367Z,0
2016-02-06T04:11:07.120Z,0
2016-02-06T04:12:07.108Z,0
2016-02-06T04:13:07.047Z,0
2016-02-06T04:14:07.037Z,0
2016-02-06T04:15:07.039Z,0
2016-02-06T04:16:06.979Z,0
2016-02-06T04:17:06.967Z,0
2016-02-06T04:18:06.970Z,0
2016-02-06T04:19:06.928Z,0
2016-02-06T04:20:06.915Z,0
2016-02-06T04:21:07.136Z,0
2016-02-06T04:22:06.875Z,0
2016-02-06T04:23:06.830Z,0
2016-02-06T04:24:06.819Z,0
2016-02-06T04:25:06.836Z,0
2016-02-06T04:26:06.777Z,0
2016-02-06T04:27:06.763Z,0
2016-02-06T04:28:06.719Z,0
2016-02-06T04:29:06.707Z,0
2016-02-06T04:30:06.680Z,0
2016-02-06T04:31:06.682Z,0
2016-02-06T04:32:06.638Z,0
2016-02-06T04:33:06.610Z,0
2016-02-06T04:34:06.582Z,0
2016-02-06T04:35:06.568Z,0
2016-02-06T04:36:06.556Z,0
2016-02-06T04:37:06.526Z,0
2016-02-06T04:38:06.530Z,0
2016-02-06T04:39:06.470Z,0
2016-02-06T04:40:06.489Z,0
2016-02-06T04:41:06.445Z,0
2016-02-06T04:42:06.416Z,0
2016-02-06T04:43:06.404Z,0
2016-02-06T04:44:06.375Z,0
2016-02-06T04:45:06.362Z,0
2016-02-06T04:46:06.318Z,0
2016-02-06T04:47:06.321Z,0
2016-02-06T04:48:06.277Z,0
2016-02-06T04:49:06.249Z,0
2016-02-06T04:50:06.252Z,0
2016-02-06T04:51:06.207Z,0
2016-02-06T04:52:06.196Z,0
2016-02-06T04:53:06.168Z,0
2016-02-06T04:54:06.154Z,0
2016-02-06T04:55:06.129Z,0
2016-02-06T04:56:06.101Z,0
2016-02-06T04:57:06.087Z,0
2016-02-06T04:58:06.059Z,0
2016-02-06T04:59:06.057Z,0
2016-02-06T05:00:06.013Z,0
2016-02-06T05:01:06.031Z,0
2016-02-06T05:02:06.112Z,0
2016-02-06T05:03:05.942Z,0
2016-02-06T05:04:05.930Z,0
2016-02-06T05:05:05.901Z,0
2016-02-06T05:06:05.889Z,0
2016-02-06T05:07:05.859Z,0
2016-02-06T05:08:05.849Z,0
2016-02-06T05:09:05.804Z,0
2016-02-06T05:10:05.839Z,0
2016-02-06T05:11:05.779Z,0
2016-02-06T05:12:05.735Z,0
2016-02-06T05:13:05.925Z,0
2016-02-06T05:14:05.709Z,0
2016-02-06T05:15:05.697Z,0
2016-02-06T05:16:05.653Z,0
2016-02-06T05:17:05.639Z,0
2016-02-06T05:18:05.627Z,0
2016-02-06T05:19:05.582Z,0
2016-02-06T05:20:05.569Z,0
2016-02-06T05:21:05.526Z,0
2016-02-06T05:22:05.528Z,0
2016-02-06T05:23:05.500Z,0
2016-02-06T05:24:05.472Z,0
2016-02-06T05:25:05.459Z,0
2016-02-06T05:26:05.418Z,0
2016-02-06T05:27:05.420Z,0
2016-02-06T05:28:05.376Z,0
2016-02-06T05:29:05.359Z,0
2016-02-06T05:30:05.347Z,0
2016-02-06T05:31:05.333Z,0
2016-02-06T05:32:05.289Z,0
2016-02-06T05:33:05.292Z,0
2016-02-06T05:34:05.234Z,0
2016-02-06T05:35:05.221Z,0
2016-02-06T05:36:05.224Z,0
2016-02-06T05:37:05.195Z,0
2016-02-06T05:38:05.182Z,0
2016-02-06T05:39:05.122Z,0
2016-02-06T05:40:05.110Z,0
2016-02-06T05:41:05.084Z,0
2016-02-06T05:42:05.086Z,0
2016-02-06T05:43:05.089Z,0
2016-02-06T05:44:05.030Z,0
2016-02-06T05:45:05.033Z,0
2016-02-06T05:46:04.973Z,0
2016-02-06T05:47:04.960Z,0
2016-02-06T05:48:04.917Z,0
2016-02-06T05:49:04.920Z,0
2016-02-06T05:50:04.876Z,0
2016-02-06T05:51:04.863Z,0
2016-02-06T05:52:04.834Z,0
2016-02-06T05:53:04.821Z,0
2016-02-06T05:54:04.795Z,0
2016-02-06T05:55:04.766Z,0
2016-02-06T05:56:04.737Z,0
2016-02-06T05:57:04.740Z,0
2016-02-06T05:58:04.696Z,0
2016-02-06T05:59:04.697Z,0
2016-02-06T06:00:04.653Z,0
2016-02-06T06:01:04.640Z,0
2016-02-06T06:02:04.597Z,0
2016-02-06T06:03:04.600Z,0
2016-02-06T06:04:04.555Z,0
2016-02-06T06:05:04.840Z,0
2016-02-06T06:06:04.530Z,0
2016-02-06T06:07:04.502Z,0
2016-02-06T06:08:04.488Z,0
2016-02-06T06:09:04.460Z,0
2016-02-06T06:10:04.571Z,0
2016-02-06T06:11:04.434Z,0
2016-02-06T06:12:04.390Z,0
2016-02-06T06:13:04.362Z,0
2016-02-06T06:14:04.348Z,0
2016-02-06T06:15:04.335Z,0
2016-02-06T06:16:04.322Z,0
2016-02-06T06:17:04.279Z,0
2016-02-06T06:18:04.265Z,0
2016-02-06T06:19:04.237Z,0
2016-02-06T06:20:04.211Z,0
2016-02-06T06:21:04.199Z,0
2016-02-06T06:22:04.155Z,0
2016-02-06T06:23:04.174Z,0
2016-02-06T06:24:04.113Z,0
2016-02-06T06:25:04.085Z,0
2016-02-06T06:26:04.104Z,0
2016-02-06T06:27:04.044Z,0
2016-02-06T06:28:04.034Z,0
2016-02-06T06:29:04.006Z,0
2016-02-06T06:30:03.996Z,0
2016-02-06T06:31:03.952Z,0
2016-02-06T06:32:03.955Z,0
2016-02-06T06:33:03.927Z,0
2016-02-06T06:34:03.162Z,0
2016-02-06T06:35:03.870Z,0
2016-02-06T06:36:03.856Z,0
2016-02-06T06:37:03.843Z,0
2016-02-06T06:38:03.797Z,0
2016-02-06T06:39:03.784Z,0
2016-02-06T06:40:03.787Z,0
2016-02-06T06:41:03.727Z,4
2016-02-06T06:42:03.730Z,4
2016-02-06T06:43:03.687Z,0
2016-02-06T06:44:03.533Z,4
2016-02-06T06:45:03.645Z,4
2016-02-06T06:46:03.632Z,8
2016-02-06T06:47:03.587Z,4
2016-02-06T06:48:03.578Z,8
2016-02-06T06:49:03.597Z,8
2016-02-06T06:50:03.537Z,12
2016-02-06T06:51:03.555Z,8
2016-02-06T06:52:03.481Z,8
2016-02-06T06:53:03.468Z,12
2016-02-06T06:54:03.440Z,12
2016-02-06T06:55:03.427Z,16
2016-02-06T06:56:03.415Z,16
2016-02-06T06:57:03.621Z,20
2016-02-06T06:58:03.358Z,20
2016-02-06T06:59:03.329Z,24
2016-02-06T07:00:03.301Z,28
2016-02-06T07:01:03.282Z,28
2016-02-06T07:02:03.395Z,32
2016-02-06T07:03:03.226Z,36
2016-02-06T07:04:03.231Z,36
2016-02-06T07:05:03.186Z,40
2016-02-06T07:06:03.189Z,44
2016-02-06T07:07:03.144Z,44
2016-02-06T07:08:03.133Z,44
2016-02-06T07:09:03.104Z,52
2016-02-06T07:10:03.092Z,56
2016-02-06T07:11:03.078Z,56
2016-02-06T07:12:03.050Z,60
2016-02-06T07:13:03.209Z,64
2016-02-06T07:14:02.994Z,64
2016-02-06T07:15:02.981Z,72
2016-02-06T07:16:02.951Z,76
2016-02-06T07:17:02.939Z,80
2016-02-06T07:18:02.895Z,88
2016-02-06T07:19:02.882Z,96
2016-02-06T07:20:02.916Z,104
2016-02-06T07:21:02.840Z,112
2016-02-06T07:22:02.829Z,124
2016-02-06T07:23:02.643Z,132
2016-02-06T07:24:02.772Z,140
2016-02-06T07:25:02.743Z,144
2016-02-06T07:26:02.730Z,152
2016-02-06T07:27:02.721Z,156
2016-02-06T07:28:02.691Z,160
2016-02-06T07:29:02.665Z,164
2016-02-06T07:30:02.637Z,164
2016-02-06T07:31:02.623Z,156
2016-02-06T07:32:02.594Z,152
2016-02-06T07:33:02.585Z,160
2016-02-06T07:34:02.541Z,168
2016-02-06T07:35:02.529Z,172
2016-02-06T07:36:02.516Z,184
2016-02-06T07:37:02.487Z,192
2016-02-06T07:38:02.459Z,196
2016-02-06T07:39:02.430Z,192
2016-02-06T07:40:02.417Z,200
2016-02-06T07:41:02.404Z,216
2016-02-06T07:42:02.376Z,228
2016-02-06T07:43:02.347Z,236
2016-02-06T07:44:02.318Z,228
2016-02-06T07:45:02.294Z,232
2016-02-06T07:46:02.280Z,236
2016-02-06T07:47:02.268Z,244
2016-02-06T07:48:02.271Z,256
2016-02-06T07:49:02.210Z,280
2016-02-06T07:50:02.216Z,304
2016-02-06T07:51:02.204Z,328
2016-02-06T07:52:02.146Z,344
2016-02-06T07:53:02.116Z,372
2016-02-06T07:54:02.243Z,400
2016-02-06T07:55:02.028Z,420
2016-02-06T07:56:01.982Z,448
2016-02-06T07:57:01.961Z,468
2016-02-06T07:58:01.770Z,480
2016-02-06T07:59:01.907Z,488
2016-02-06T08:00:01.875Z,488
2016-02-06T08:01:01.841Z,476
2016-02-06T08:02:01.810Z,428
2016-02-06T08:03:01.781Z,360
2016-02-06T08:04:01.783Z,312
2016-02-06T08:05:01.988Z,300
2016-02-06T08:06:01.723Z,324
2016-02-06T08:07:01.693Z,412
2016-02-06T08:08:01.666Z,540
2016-02-06T08:09:01.636Z,660
2016-02-06T08:10:01.685Z,720
2016-02-06T08:11:01.609Z,696
2016-02-06T08:12:01.580Z,668
2016-02-06T08:13:01.582Z,664
2016-02-06T08:14:01.538Z,668
2016-02-06T08:15:01.524Z,644
2016-02-06T08:16:01.496Z,576
2016-02-06T08:17:01.467Z,480
2016-02-06T08:18:01.423Z,408
2016-02-06T08:19:01.409Z,372
2016-02-06T08:20:02.172Z,348
2016-02-06T08:21:01.254Z,356
2016-02-06T08:22:01.407Z,372
2016-02-06T08:23:01.391Z,384
2016-02-06T08:24:01.503Z,396
2016-02-06T08:25:01.287Z,400
2016-02-06T08:26:01.259Z,408
2016-02-06T08:27:01.261Z,432
2016-02-06T08:28:01.171Z,444
2016-02-06T08:29:01.204Z,448
2016-02-06T08:30:01.176Z,476
2016-02-06T08:31:01.163Z,496
2016-02-06T08:32:01.125Z,508
2016-02-06T08:33:01.127Z,524
2016-02-06T08:34:01.082Z,528
2016-02-06T08:35:01.086Z,536
2016-02-06T08:36:01.042Z,540
2016-02-06T08:37:01.029Z,548
2016-02-06T08:38:01.016Z,548
2016-02-06T08:39:00.971Z,556
2016-02-06T08:40:00.959Z,564
2016-02-06T08:41:00.915Z,572
2016-02-06T08:42:00.911Z,576
2016-02-06T08:43:00.913Z,576
2016-02-06T08:44:00.868Z,572
2016-02-06T08:45:00.855Z,572
2016-02-06T08:46:00.812Z,572
2016-02-06T08:47:00.817Z,580
2016-02-06T08:48:00.773Z,580
2016-02-06T08:49:00.775Z,584
2016-02-06T08:50:00.763Z,588
2016-02-06T08:51:00.906Z,592
2016-02-06T08:52:00.723Z,596
2016-02-06T08:53:00.679Z,596
2016-02-06T08:54:00.682Z,600
2016-02-06T08:55:00.640Z,600
2016-02-06T08:56:00.612Z,604
2016-02-06T08:57:00.599Z,604
2016-02-06T08:58:00.554Z,608
2016-02-06T08:59:00.542Z,612
2016-02-06T09:00:00.529Z,616
2016-02-06T09:01:00.516Z,620
2016-02-06T09:02:00.477Z,620
2016-02-06T09:03:00.480Z,624
2016-02-06T09:04:00.440Z,632
2016-02-06T09:05:00.416Z,640
2016-02-06T09:06:00.404Z,640
2016-02-06T09:07:00.501Z,644
2016-02-06T09:08:00.363Z,652
2016-02-06T09:09:00.163Z,656
2016-02-06T09:10:00.323Z,660
2016-02-06T09:11:00.279Z,664
2016-02-06T09:12:00.250Z,672
2016-02-06T09:13:00.128Z,680
2016-02-06T09:14:00.223Z,688
2016-02-06T09:15:00.227Z,692
2016-02-06T09:16:00.167Z,700
2016-02-06T09:17:00.015Z,704
2016-02-06T09:18:00.143Z,700
2016-02-06T09:19:00.145Z,700
2016-02-06T09:20:00.090Z,704
2016-02-06T09:21:00.078Z,708
2016-02-06T09:22:00.080Z,712
2016-02-06T09:23:00.021Z,724
2016-02-06T09:24:00.024Z,732
2016-02-06T09:24:59.996Z,744
2016-02-06T09:25:59.967Z,760
2016-02-06T09:26:59.939Z,768
2016-02-06T09:27:59.926Z,776
2016-02-06T09:28:59.914Z,776
2016-02-06T09:29:59.870Z,772
2016-02-06T09:30:59.873Z,772
2016-02-06T09:31:59.891Z,784
2016-02-06T09:32:59.832Z,800
2016-02-06T09:33:59.803Z,816
2016-02-06T09:34:59.774Z,828
2016-02-06T09:35:59.763Z,828
2016-02-06T09:36:59.734Z,824
2016-02-06T09:37:59.705Z,836
2016-02-06T09:38:59.724Z,848
2016-02-06T09:39:59.663Z,848
2016-02-06T09:40:59.667Z,856
2016-02-06T09:41:59.623Z,864
2016-02-06T09:42:59.579Z,872
2016-02-06T09:43:59.583Z,888
2016-02-06T09:44:59.570Z,896
2016-02-06T09:45:59.525Z,892
2016-02-06T09:46:59.513Z,912
2016-02-06T09:47:59.656Z,940
2016-02-06T09:48:59.472Z,952
2016-02-06T09:49:59.474Z,956
2016-02-06T09:50:59.431Z,960
2016-02-06T09:51:59.402Z,976
2016-02-06T09:52:59.406Z,996
2016-02-06T09:53:59.361Z,1016
2016-02-06T09:54:59.192Z,1056
2016-02-06T09:55:59.334Z,1176
2016-02-06T09:56:59.337Z,1344
2016-02-06T09:57:59.294Z,1464
2016-02-06T09:58:59.514Z,1500
2016-02-06T09:59:59.299Z,1420
2016-02-06T10:00:59.239Z,1296
2016-02-06T10:01:59.194Z,1216
2016-02-06T10:02:59.189Z,1156
2016-02-06T10:03:59.301Z,1160
2016-02-06T10:04:59.132Z,1192
2016-02-06T10:05:59.119Z,1304
2016-02-06T10:06:59.090Z,1520
2016-02-06T10:07:59.077Z,1684
2016-02-06T10:08:59.050Z,1728
2016-02-06T10:09:59.255Z,1624
2016-02-06T10:10:59.008Z,1524
2016-02-06T10:11:58.995Z,1424
2016-02-06T10:12:58.966Z,1364
2016-02-06T10:13:58.938Z,1260
2016-02-06T10:14:58.786Z,1188
2016-02-06T10:15:58.928Z,1132
2016-02-06T10:16:58.887Z,1136
2016-02-06T10:17:58.859Z,1144
2016-02-06T10:18:58.847Z,1168
2016-02-06T10:19:58.833Z,1172
2016-02-06T10:20:58.804Z,1372
2016-02-06T10:21:58.779Z,1260
2016-02-06T10:22:58.783Z,1548
2016-02-06T10:23:58.739Z,1444
2016-02-06T10:24:58.726Z,1220
2016-02-06T10:25:58.697Z,1240
2016-02-06T10:26:58.683Z,1328
2016-02-06T10:27:58.828Z,2056
2016-02-06T10:28:58.659Z,1760
2016-02-06T10:29:58.631Z,1296
2016-02-06T10:30:58.602Z,1404
2016-02-06T10:31:58.559Z,2476
2016-02-06T10:32:58.561Z,2576
2016-02-06T10:33:58.517Z,2460
2016-02-06T10:34:58.520Z,1612
2016-02-06T10:35:58.492Z,2072
2016-02-06T10:36:58.464Z,2304
2016-02-06T10:37:58.451Z,2660
2016-02-06T10:38:58.422Z,2808
2016-02-06T10:39:58.456Z,2800
2016-02-06T10:40:58.411Z,2788
2016-02-06T10:41:58.368Z,2560
2016-02-06T10:42:58.340Z,1876
2016-02-06T10:43:58.328Z,2368
2016-02-06T10:44:58.377Z,2368
2016-02-06T10:45:58.286Z,2692
2016-02-06T10:46:58.413Z,2460
2016-02-06T10:47:58.513Z,2712
2016-02-06T10:48:58.221Z,1456
2016-02-06T10:49:58.238Z,1352
2016-02-06T10:50:58.366Z,2396
2016-02-06T10:51:58.166Z,2852
2016-02-06T10:52:58.324Z,2212
2016-02-06T10:53:58.219Z,2316
2016-02-06T10:54:58.127Z,2904
2016-02-06T10:55:58.225Z,2596
2016-02-06T10:56:58.055Z,2436
2016-02-06T10:57:58.027Z,2532
2016-02-06T10:58:58.014Z,1972
2016-02-06T10:59:57.990Z,1964
2016-02-06T11:00:58.086Z,1712
2016-02-06T11:01:57.948Z,1700
2016-02-06T11:02:57.951Z,1660
2016-02-06T11:03:57.908Z,2152
2016-02-06T11:04:57.957Z,2292
2016-02-06T11:05:57.882Z,2488
2016-02-06T11:06:57.853Z,2648
2016-02-06T11:07:57.824Z,2528
2016-02-06T11:08:57.815Z,2636
2016-02-06T11:09:57.786Z,2920
2016-02-06T11:10:57.757Z,2664
2016-02-06T11:11:57.792Z,3080
2016-02-06T11:12:57.716Z,2732
2016-02-06T11:13:57.688Z,1956
2016-02-06T11:14:57.691Z,2532
2016-02-06T11:15:57.663Z,2860
2016-02-06T11:16:57.649Z,2700
2016-02-06T11:17:57.621Z,2288
2016-02-06T11:18:57.779Z,2048
2016-02-06T11:19:57.580Z,1736
2016-02-06T11:20:57.582Z,1416
2016-02-06T11:21:57.538Z,1576
2016-02-06T11:22:57.509Z,2744
2016-02-06T11:23:57.497Z,3128
2016-02-06T11:24:57.500Z,2692
2016-02-06T11:25:57.284Z,1760
2016-02-06T11:26:57.443Z,1608
2016-02-06T11:27:57.411Z,1780
2016-02-06T11:28:57.397Z,2032
2016-02-06T11:29:57.357Z,2372
2016-02-06T11:30:57.375Z,2648
2016-02-06T11:31:57.331Z,2884
2016-02-06T11:32:57.317Z,2764
2016-02-06T11:33:57.273Z,2484
2016-02-06T11:34:57.277Z,3224
2016-02-06T11:35:57.232Z,3696
2016-02-06T11:36:57.224Z,3528
2016-02-06T11:37:57.210Z,3592
2016-02-06T11:38:57.183Z,4264
2016-02-06T11:39:57.170Z,4688
2016-02-06T11:40:57.141Z,4600
2016-02-06T11:41:57.128Z,4320
2016-02-06T11:42:57.130Z,4392
2016-02-06T11:43:57.071Z,3820
2016-02-06T11:44:57.074Z,3624
2016-02-06T11:45:57.045Z,3404
2016-02-06T11:46:57.016Z,3336
2016-02-06T11:47:57.237Z,3128
2016-02-06T11:48:56.991Z,3240
2016-02-06T11:49:56.963Z,2104
2016-02-06T11:50:56.950Z,2516
2016-02-06T11:51:56.937Z,2788
2016-02-06T11:52:57.033Z,3276
2016-02-06T11:53:56.880Z,3076
2016-02-06T11:54:56.867Z,2728
2016-02-06T11:55:56.838Z,2088
2016-02-06T11:56:56.825Z,2364
2016-02-06T11:57:56.797Z,2144
2016-02-06T11:58:56.831Z,1388
2016-02-06T11:59:56.789Z,1312
2016-02-06T12:00:56.729Z,1268
2016-02-06T12:01:56.715Z,1484
2016-02-06T12:02:56.719Z,1288
2016-02-06T12:03:56.707Z,1324
2016-02-06T12:04:56.647Z,1572
2016-02-06T12:05:56.665Z,2464
2016-02-06T12:06:56.668Z,2844
2016-02-06T12:07:56.640Z,3448
2016-02-06T12:08:56.564Z,4592
2016-02-06T12:09:56.567Z,3252
2016-02-06T12:10:56.527Z,2776
2016-02-06T12:11:56.560Z,3756
2016-02-06T12:12:56.500Z,4176
2016-02-06T12:13:56.487Z,3700
2016-02-06T12:14:56.443Z,3288
2016-02-06T12:15:56.451Z,3280
2016-02-06T12:16:56.407Z,3116
2016-02-06T12:17:56.393Z,3120
2016-02-06T12:18:56.366Z,2536
2016-02-06T12:19:56.369Z,2012
2016-02-06T12:20:56.325Z,1800
2016-02-06T12:21:56.311Z,2232
2016-02-06T12:22:56.283Z,2312
2016-02-06T12:23:56.271Z,2072
2016-02-06T12:24:56.244Z,2956
2016-02-06T12:25:56.231Z,3056
2016-02-06T12:26:56.249Z,2372
2016-02-06T12:27:56.189Z,3088
2016-02-06T12:28:56.209Z,3304
2016-02-06T12:29:56.165Z,2856
2016-02-06T12:30:56.121Z,3116
2016-02-06T12:31:56.125Z,3296
2016-02-06T12:32:56.096Z,3272
2016-02-06T12:33:56.114Z,3316
2016-02-06T12:34:56.039Z,3360
2016-02-06T12:35:56.041Z,2880
2016-02-06T12:36:56.046Z,4048
2016-02-06T12:37:56.001Z,4024
2016-02-06T12:38:55.973Z,3512
2016-02-06T12:39:56.365Z,4024
2016-02-06T12:40:56.166Z,3124
2016-02-06T12:41:55.902Z,2912
2016-02-06T12:42:55.874Z,4576
2016-02-06T12:43:55.892Z,3888
2016-02-06T12:44:55.989Z,3340
2016-02-06T12:45:55.835Z,3760
2016-02-06T12:46:55.806Z,3432
2016-02-06T12:47:55.793Z,3872
2016-02-06T12:48:55.765Z,3764
2016-02-06T12:49:55.768Z,3628
2016-02-06T12:50:55.741Z,3660
2016-02-06T12:51:55.714Z,4132
2016-02-06T12:52:55.684Z,4460
2016-02-06T12:53:55.656Z,4412
2016-02-06T12:54:55.644Z,4416
2016-02-06T12:55:55.834Z,4612
2016-02-06T12:56:55.618Z,4360
2016-02-06T12:57:55.592Z,4460
2016-02-06T12:58:55.578Z,4616
2016-02-06T12:59:55.553Z,4676
2016-02-06T13:00:55.414Z,4672
2016-02-06T13:01:55.542Z,4360
2016-02-06T13:02:55.499Z,4256
2016-02-06T13:03:55.469Z,4064
2016-02-06T13:04:55.536Z,4028
2016-02-06T13:05:55.476Z,3896
2016-02-06T13:06:55.400Z,3808
2016-02-06T13:07:55.403Z,3788
2016-02-06T13:08:55.406Z,3780
2016-02-06T13:09:55.378Z,3592
2016-02-06T13:10:55.352Z,3592
2016-02-06T13:11:55.308Z,3692
2016-02-06T13:12:55.310Z,3464
2016-02-06T13:13:55.281Z,3948
2016-02-06T13:14:55.269Z,4064
2016-02-06T13:15:55.303Z,3944
2016-02-06T13:16:55.243Z,3972
2016-02-06T13:17:55.188Z,4060
2016-02-06T13:18:55.206Z,4264
2016-02-06T13:19:55.162Z,4484
2016-02-06T13:20:55.149Z,3536
2016-02-06T13:21:55.105Z,4572
2016-02-06T13:22:55.092Z,4936
2016-02-06T13:23:55.096Z,5184
2016-02-06T13:24:55.082Z,4964
2016-02-06T13:25:55.041Z,4948
2016-02-06T13:26:54.856Z,4812
2016-02-06T13:27:54.985Z,4996
2016-02-06T13:28:54.862Z,4992
2016-02-06T13:29:54.958Z,3684
2016-02-06T13:30:54.949Z,4712
2016-02-06T13:31:55.014Z,3968
2016-02-06T13:32:54.891Z,3484
2016-02-06T13:33:54.893Z,4476
2016-02-06T13:34:54.866Z,4516
2016-02-06T13:35:54.856Z,4600
2016-02-06T13:36:54.999Z,4268
2016-02-06T13:37:54.799Z,4708
2016-02-06T13:38:54.790Z,4420
2016-02-06T13:39:54.792Z,3324
2016-02-06T13:40:54.732Z,4512
2016-02-06T13:41:54.719Z,4368
2016-02-06T13:42:54.722Z,4696
2016-02-06T13:43:54.694Z,3888
2016-02-06T13:44:54.665Z,3820
2016-02-06T13:45:54.653Z,3712
2016-02-06T13:46:54.671Z,3548
2016-02-06T13:47:54.611Z,3920
2016-02-06T13:48:54.582Z,4076
2016-02-06T13:49:54.570Z,3616
2016-02-06T13:50:54.557Z,3396
2016-02-06T13:51:54.547Z,3556
2016-02-06T13:52:54.721Z,3600
2016-02-06T13:53:54.489Z,3352
2016-02-06T13:54:54.477Z,3244
2016-02-06T13:55:54.479Z,3132
2016-02-06T13:56:54.436Z,3068
2016-02-06T13:57:54.422Z,3064
2016-02-06T13:58:54.409Z,2992
2016-02-06T13:59:54.384Z,2948
2016-02-06T14:00:54.371Z,2924
2016-02-06T14:01:54.358Z,2868
2016-02-06T14:02:54.329Z,2808
2016-02-06T14:03:54.300Z,2764
2016-02-06T14:04:54.289Z,2572
2016-02-06T14:05:54.292Z,2580